sensor_id;sensor_type;location;lat;lon;timestamp;P1;durP1;ratioP1;P2;durP2;ratioP2
29044;SDS011;16133;49.486;12.176;2023-07-30T00:01:55;2.08;;;1.63;;
29044;SDS011;16133;49.486;12.176;2023-07-30T00:04:21;2.00;;;1.60;;
29044;SDS011;16133;49.486;12.176;2023-07-30T00:06:46;3.67;;;2.13;;
29044;SDS011;16133;49.486;12.176;2023-07-30T00:09:12;2.47;;;1.77;;
29044;SDS011;16133;49.486;12.176;2023-07-30T00:11:37;4.72;;;2.25;;
29044;SDS011;16133;49.486;12.176;2023-07-30T00:14:03;2.85;;;1.70;;
29044;SDS011;16133;49.486;12.176;2023-07-30T00:16:28;2.08;;;1.65;;
29044;SDS011;16133;49.486;12.176;2023-07-30T00:18:54;2.78;;;1.60;;
29044;SDS011;16133;49.486;12.176;2023-07-30T00:21:19;2.53;;;1.70;;
29044;SDS011;16133;49.486;12.176;2023-07-30T00:23:45;3.92;;;1.60;;
29044;SDS011;16133;49.486;12.176;2023-07-30T00:26:11;2.92;;;1.90;;
29044;SDS011;16133;49.486;12.176;2023-07-30T00:28:37;2.55;;;1.33;;
29044;SDS011;16133;49.486;12.176;2023-07-30T00:31:02;2.28;;;1.85;;
29044;SDS011;16133;49.486;12.176;2023-07-30T00:33:27;2.95;;;2.00;;
29044;SDS011;16133;49.486;12.176;2023-07-30T00:35:53;2.20;;;1.42;;
29044;SDS011;16133;49.486;12.176;2023-07-30T00:38:19;2.03;;;1.40;;
29044;SDS011;16133;49.486;12.176;2023-07-30T00:40:45;2.00;;;1.48;;
29044;SDS011;16133;49.486;12.176;2023-07-30T00:43:10;2.13;;;1.45;;
29044;SDS011;16133;49.486;12.176;2023-07-30T00:45:36;2.63;;;1.77;;
29044;SDS011;16133;49.486;12.176;2023-07-30T00:48:05;2.15;;;1.60;;
29044;SDS011;16133;49.486;12.176;2023-07-30T00:50:30;1.98;;;1.50;;
29044;SDS011;16133;49.486;12.176;2023-07-30T00:52:56;2.85;;;1.48;;
29044;SDS011;16133;49.486;12.176;2023-07-30T00:55:22;2.88;;;1.80;;
29044;SDS011;16133;49.486;12.176;2023-07-30T00:57:48;3.05;;;1.77;;
29044;SDS011;16133;49.486;12.176;2023-07-30T01:00:14;3.15;;;1.83;;
29044;SDS011;16133;49.486;12.176;2023-07-30T01:02:40;3.00;;;1.98;;
29044;SDS011;16133;49.486;12.176;2023-07-30T01:05:05;2.75;;;1.80;;
29044;SDS011;16133;49.486;12.176;2023-07-30T01:07:31;2.45;;;1.73;;
29044;SDS011;16133;49.486;12.176;2023-07-30T01:09:57;2.83;;;1.60;;
29044;SDS011;16133;49.486;12.176;2023-07-30T01:12:23;4.60;;;2.00;;
29044;SDS011;16133;49.486;12.176;2023-07-30T01:14:49;3.80;;;1.60;;
29044;SDS011;16133;49.486;12.176;2023-07-30T01:17:16;2.60;;;1.90;;
29044;SDS011;16133;49.486;12.176;2023-07-30T01:19:44;3.03;;;1.92;;
29044;SDS011;16133;49.486;12.176;2023-07-30T01:22:10;2.90;;;1.73;;
29044;SDS011;16133;49.486;12.176;2023-07-30T01:24:35;4.22;;;2.22;;
29044;SDS011;16133;49.486;12.176;2023-07-30T01:27:04;1.83;;;1.63;;
29044;SDS011;16133;49.486;12.176;2023-07-30T01:29:40;2.50;;;1.80;;
29044;SDS011;16133;49.486;12.176;2023-07-30T01:32:11;3.92;;;2.25;;
29044;SDS011;16133;49.486;12.176;2023-07-30T01:34:37;2.65;;;1.70;;
29044;SDS011;16133;49.486;12.176;2023-07-30T01:37:05;3.80;;;2.22;;
29044;SDS011;16133;49.486;12.176;2023-07-30T01:39:33;3.25;;;2.40;;
29044;SDS011;16133;49.486;12.176;2023-07-30T01:42:03;2.53;;;1.92;;
29044;SDS011;16133;49.486;12.176;2023-07-30T01:44:29;2.40;;;1.80;;
29044;SDS011;16133;49.486;12.176;2023-07-30T01:46:54;3.42;;;2.33;;
29044;SDS011;16133;49.486;12.176;2023-07-30T01:49:23;3.92;;;2.30;;
29044;SDS011;16133;49.486;12.176;2023-07-30T01:51:48;2.92;;;2.40;;
29044;SDS011;16133;49.486;12.176;2023-07-30T01:54:14;3.53;;;2.20;;
29044;SDS011;16133;49.486;12.176;2023-07-30T01:56:39;3.78;;;2.50;;
29044;SDS011;16133;49.486;12.176;2023-07-30T01:59:05;2.85;;;2.05;;
29044;SDS011;16133;49.486;12.176;2023-07-30T02:01:30;3.90;;;2.20;;
29044;SDS011;16133;49.486;12.176;2023-07-30T02:03:56;3.85;;;2.40;;
29044;SDS011;16133;49.486;12.176;2023-07-30T02:06:21;4.75;;;2.70;;
29044;SDS011;16133;49.486;12.176;2023-07-30T02:08:47;2.78;;;2.13;;
29044;SDS011;16133;49.486;12.176;2023-07-30T02:11:12;4.43;;;2.40;;
29044;SDS011;16133;49.486;12.176;2023-07-30T02:13:38;3.75;;;2.55;;
29044;SDS011;16133;49.486;12.176;2023-07-30T02:16:03;3.13;;;2.50;;
29044;SDS011;16133;49.486;12.176;2023-07-30T02:18:29;4.03;;;2.47;;
29044;SDS011;16133;49.486;12.176;2023-07-30T02:20:54;3.38;;;2.60;;
29044;SDS011;16133;49.486;12.176;2023-07-30T02:23:20;3.40;;;2.45;;
29044;SDS011;16133;49.486;12.176;2023-07-30T02:25:46;3.35;;;2.40;;
29044;SDS011;16133;49.486;12.176;2023-07-30T02:28:11;3.25;;;2.40;;
29044;SDS011;16133;49.486;12.176;2023-07-30T02:30:36;3.65;;;2.13;;
29044;SDS011;16133;49.486;12.176;2023-07-30T02:33:02;3.83;;;2.20;;
29044;SDS011;16133;49.486;12.176;2023-07-30T02:35:27;2.90;;;2.60;;
29044;SDS011;16133;49.486;12.176;2023-07-30T02:37:53;3.45;;;2.60;;
29044;SDS011;16133;49.486;12.176;2023-07-30T02:40:18;2.97;;;2.45;;
29044;SDS011;16133;49.486;12.176;2023-07-30T02:42:44;5.07;;;2.83;;
29044;SDS011;16133;49.486;12.176;2023-07-30T02:45:10;4.80;;;3.15;;
29044;SDS011;16133;49.486;12.176;2023-07-30T02:47:35;4.70;;;2.60;;
29044;SDS011;16133;49.486;12.176;2023-07-30T02:50:01;5.45;;;3.35;;
29044;SDS011;16133;49.486;12.176;2023-07-30T02:52:28;5.00;;;3.08;;
29044;SDS011;16133;49.486;12.176;2023-07-30T02:54:53;4.90;;;2.67;;
29044;SDS011;16133;49.486;12.176;2023-07-30T02:57:19;6.57;;;3.28;;
29044;SDS011;16133;49.486;12.176;2023-07-30T02:59:45;6.25;;;3.35;;
29044;SDS011;16133;49.486;12.176;2023-07-30T03:02:10;4.72;;;3.33;;
29044;SDS011;16133;49.486;12.176;2023-07-30T03:04:36;6.03;;;3.47;;
29044;SDS011;16133;49.486;12.176;2023-07-30T03:07:01;5.95;;;3.65;;
29044;SDS011;16133;49.486;12.176;2023-07-30T03:09:27;5.07;;;3.25;;
29044;SDS011;16133;49.486;12.176;2023-07-30T03:11:53;6.35;;;3.85;;
29044;SDS011;16133;49.486;12.176;2023-07-30T03:14:18;5.85;;;3.28;;
29044;SDS011;16133;49.486;12.176;2023-07-30T03:16:46;5.00;;;3.75;;
29044;SDS011;16133;49.486;12.176;2023-07-30T03:19:12;5.47;;;3.35;;
29044;SDS011;16133;49.486;12.176;2023-07-30T03:21:37;5.28;;;3.25;;
29044;SDS011;16133;49.486;12.176;2023-07-30T03:24:03;6.47;;;3.90;;
29044;SDS011;16133;49.486;12.176;2023-07-30T03:26:28;5.47;;;3.42;;
29044;SDS011;16133;49.486;12.176;2023-07-30T03:28:54;8.88;;;4.10;;
29044;SDS011;16133;49.486;12.176;2023-07-30T03:31:19;5.47;;;3.70;;
29044;SDS011;16133;49.486;12.176;2023-07-30T03:33:45;5.40;;;3.28;;
29044;SDS011;16133;49.486;12.176;2023-07-30T03:36:11;7.38;;;4.15;;
29044;SDS011;16133;49.486;12.176;2023-07-30T03:38:38;5.88;;;3.42;;
29044;SDS011;16133;49.486;12.176;2023-07-30T03:41:04;5.85;;;3.40;;
29044;SDS011;16133;49.486;12.176;2023-07-30T03:43:31;6.80;;;4.72;;
29044;SDS011;16133;49.486;12.176;2023-07-30T03:45:56;6.18;;;3.78;;
29044;SDS011;16133;49.486;12.176;2023-07-30T03:48:22;6.70;;;3.80;;
29044;SDS011;16133;49.486;12.176;2023-07-30T03:50:47;5.28;;;4.03;;
29044;SDS011;16133;49.486;12.176;2023-07-30T03:53:13;5.80;;;3.40;;
29044;SDS011;16133;49.486;12.176;2023-07-30T03:55:38;6.97;;;4.18;;
29044;SDS011;16133;49.486;12.176;2023-07-30T03:58:05;8.18;;;4.63;;
29044;SDS011;16133;49.486;12.176;2023-07-30T04:00:31;7.70;;;4.53;;
29044;SDS011;16133;49.486;12.176;2023-07-30T04:02:56;6.20;;;4.40;;
29044;SDS011;16133;49.486;12.176;2023-07-30T04:05:22;14.25;;;6.97;;
29044;SDS011;16133;49.486;12.176;2023-07-30T04:07:48;11.68;;;5.70;;
29044;SDS011;16133;49.486;12.176;2023-07-30T04:10:13;14.40;;;7.63;;
29044;SDS011;16133;49.486;12.176;2023-07-30T04:12:38;10.90;;;5.72;;
29044;SDS011;16133;49.486;12.176;2023-07-30T04:15:04;8.57;;;5.28;;
29044;SDS011;16133;49.486;12.176;2023-07-30T04:17:30;7.75;;;5.07;;
29044;SDS011;16133;49.486;12.176;2023-07-30T04:19:55;6.88;;;4.85;;
29044;SDS011;16133;49.486;12.176;2023-07-30T04:22:21;6.68;;;5.00;;
29044;SDS011;16133;49.486;12.176;2023-07-30T04:24:47;8.30;;;5.68;;
29044;SDS011;16133;49.486;12.176;2023-07-30T04:27:12;10.75;;;6.32;;
29044;SDS011;16133;49.486;12.176;2023-07-30T04:29:37;8.10;;;5.47;;
29044;SDS011;16133;49.486;12.176;2023-07-30T04:32:03;8.90;;;5.25;;
29044;SDS011;16133;49.486;12.176;2023-07-30T04:34:29;8.57;;;5.65;;
29044;SDS011;16133;49.486;12.176;2023-07-30T04:36:54;12.52;;;5.70;;
29044;SDS011;16133;49.486;12.176;2023-07-30T04:39:19;8.88;;;6.07;;
29044;SDS011;16133;49.486;12.176;2023-07-30T04:41:45;8.07;;;5.70;;
29044;SDS011;16133;49.486;12.176;2023-07-30T04:44:11;12.00;;;6.88;;
29044;SDS011;16133;49.486;12.176;2023-07-30T04:46:36;7.35;;;5.30;;
29044;SDS011;16133;49.486;12.176;2023-07-30T04:49:02;9.85;;;6.15;;
29044;SDS011;16133;49.486;12.176;2023-07-30T04:51:29;9.15;;;6.22;;
29044;SDS011;16133;49.486;12.176;2023-07-30T04:53:54;9.43;;;6.25;;
29044;SDS011;16133;49.486;12.176;2023-07-30T04:56:20;10.25;;;6.30;;
29044;SDS011;16133;49.486;12.176;2023-07-30T04:58:45;10.65;;;7.15;;
29044;SDS011;16133;49.486;12.176;2023-07-30T05:01:11;8.23;;;5.88;;
29044;SDS011;16133;49.486;12.176;2023-07-30T05:03:36;6.32;;;4.75;;
29044;SDS011;16133;49.486;12.176;2023-07-30T05:06:01;10.95;;;5.88;;
29044;SDS011;16133;49.486;12.176;2023-07-30T05:08:28;7.22;;;5.05;;
29044;SDS011;16133;49.486;12.176;2023-07-30T05:10:53;7.47;;;4.95;;
29044;SDS011;16133;49.486;12.176;2023-07-30T05:13:19;7.93;;;5.25;;
29044;SDS011;16133;49.486;12.176;2023-07-30T05:15:44;7.70;;;5.10;;
29044;SDS011;16133;49.486;12.176;2023-07-30T05:18:10;5.93;;;4.75;;
29044;SDS011;16133;49.486;12.176;2023-07-30T05:20:35;5.68;;;4.25;;
29044;SDS011;16133;49.486;12.176;2023-07-30T05:23:00;6.80;;;4.63;;
29044;SDS011;16133;49.486;12.176;2023-07-30T05:25:27;7.32;;;5.20;;
29044;SDS011;16133;49.486;12.176;2023-07-30T05:27:53;7.88;;;5.43;;
29044;SDS011;16133;49.486;12.176;2023-07-30T05:30:18;7.72;;;5.57;;
29044;SDS011;16133;49.486;12.176;2023-07-30T05:32:44;6.88;;;5.38;;
29044;SDS011;16133;49.486;12.176;2023-07-30T05:35:09;9.30;;;6.00;;
29044;SDS011;16133;49.486;12.176;2023-07-30T05:37:35;9.73;;;6.85;;
29044;SDS011;16133;49.486;12.176;2023-07-30T05:40:00;9.75;;;6.28;;
29044;SDS011;16133;49.486;12.176;2023-07-30T05:42:25;9.82;;;6.80;;
29044;SDS011;16133;49.486;12.176;2023-07-30T05:44:51;9.48;;;5.70;;
29044;SDS011;16133;49.486;12.176;2023-07-30T05:47:16;10.05;;;5.85;;
29044;SDS011;16133;49.486;12.176;2023-07-30T05:49:42;12.98;;;7.05;;
29044;SDS011;16133;49.486;12.176;2023-07-30T05:52:07;7.55;;;5.82;;
29044;SDS011;16133;49.486;12.176;2023-07-30T05:54:33;6.97;;;5.22;;
29044;SDS011;16133;49.486;12.176;2023-07-30T05:56:58;9.40;;;6.55;;
29044;SDS011;16133;49.486;12.176;2023-07-30T05:59:23;8.02;;;5.40;;
29044;SDS011;16133;49.486;12.176;2023-07-30T06:01:49;10.27;;;5.30;;
29044;SDS011;16133;49.486;12.176;2023-07-30T06:04:14;7.07;;;4.72;;
29044;SDS011;16133;49.486;12.176;2023-07-30T06:06:40;5.78;;;4.53;;
29044;SDS011;16133;49.486;12.176;2023-07-30T06:09:06;6.20;;;4.28;;
29044;SDS011;16133;49.486;12.176;2023-07-30T06:11:31;7.78;;;4.22;;
29044;SDS011;16133;49.486;12.176;2023-07-30T06:13:56;5.50;;;3.78;;
29044;SDS011;16133;49.486;12.176;2023-07-30T06:16:22;4.32;;;3.20;;
29044;SDS011;16133;49.486;12.176;2023-07-30T06:18:47;3.83;;;3.05;;
29044;SDS011;16133;49.486;12.176;2023-07-30T06:21:13;4.60;;;3.30;;
29044;SDS011;16133;49.486;12.176;2023-07-30T06:23:39;3.35;;;2.45;;
29044;SDS011;16133;49.486;12.176;2023-07-30T06:26:04;4.97;;;2.90;;
29044;SDS011;16133;49.486;12.176;2023-07-30T06:28:29;2.53;;;2.17;;
29044;SDS011;16133;49.486;12.176;2023-07-30T06:30:55;3.20;;;2.60;;
29044;SDS011;16133;49.486;12.176;2023-07-30T06:33:20;3.05;;;2.45;;
29044;SDS011;16133;49.486;12.176;2023-07-30T06:35:46;2.38;;;1.70;;
29044;SDS011;16133;49.486;12.176;2023-07-30T06:38:11;2.83;;;1.88;;
29044;SDS011;16133;49.486;12.176;2023-07-30T06:40:37;2.95;;;1.48;;
29044;SDS011;16133;49.486;12.176;2023-07-30T06:43:02;4.25;;;2.00;;
29044;SDS011;16133;49.486;12.176;2023-07-30T06:45:28;1.33;;;1.23;;
29044;SDS011;16133;49.486;12.176;2023-07-30T06:47:53;3.22;;;1.60;;
29044;SDS011;16133;49.486;12.176;2023-07-30T06:50:19;1.70;;;1.40;;
29044;SDS011;16133;49.486;12.176;2023-07-30T06:52:44;2.40;;;1.60;;
29044;SDS011;16133;49.486;12.176;2023-07-30T06:55:09;1.85;;;1.50;;
29044;SDS011;16133;49.486;12.176;2023-07-30T06:57:35;2.20;;;1.88;;
29044;SDS011;16133;49.486;12.176;2023-07-30T07:00:01;2.13;;;1.60;;
29044;SDS011;16133;49.486;12.176;2023-07-30T07:02:27;2.83;;;1.98;;
29044;SDS011;16133;49.486;12.176;2023-07-30T07:04:53;2.00;;;1.70;;
29044;SDS011;16133;49.486;12.176;2023-07-30T07:07:20;2.58;;;1.90;;
29044;SDS011;16133;49.486;12.176;2023-07-30T07:09:46;3.13;;;2.08;;
29044;SDS011;16133;49.486;12.176;2023-07-30T07:12:11;3.15;;;1.83;;
29044;SDS011;16133;49.486;12.176;2023-07-30T07:14:37;3.55;;;2.15;;
29044;SDS011;16133;49.486;12.176;2023-07-30T07:17:04;4.72;;;1.73;;
29044;SDS011;16133;49.486;12.176;2023-07-30T07:19:29;3.55;;;2.55;;
29044;SDS011;16133;49.486;12.176;2023-07-30T07:21:55;2.63;;;2.10;;
29044;SDS011;16133;49.486;12.176;2023-07-30T07:24:20;2.88;;;2.05;;
29044;SDS011;16133;49.486;12.176;2023-07-30T07:26:46;1.65;;;1.50;;
29044;SDS011;16133;49.486;12.176;2023-07-30T07:29:11;2.90;;;1.70;;
29044;SDS011;16133;49.486;12.176;2023-07-30T07:31:37;3.28;;;1.90;;
29044;SDS011;16133;49.486;12.176;2023-07-30T07:34:03;2.05;;;1.80;;
29044;SDS011;16133;49.486;12.176;2023-07-30T07:36:28;3.25;;;2.40;;
29044;SDS011;16133;49.486;12.176;2023-07-30T07:38:54;2.28;;;1.90;;
29044;SDS011;16133;49.486;12.176;2023-07-30T07:41:19;3.00;;;1.67;;
29044;SDS011;16133;49.486;12.176;2023-07-30T07:43:46;2.78;;;2.03;;
29044;SDS011;16133;49.486;12.176;2023-07-30T07:46:12;2.80;;;2.17;;
29044;SDS011;16133;49.486;12.176;2023-07-30T07:48:39;2.47;;;2.10;;
29044;SDS011;16133;49.486;12.176;2023-07-30T07:51:06;2.85;;;2.05;;
29044;SDS011;16133;49.486;12.176;2023-07-30T07:53:31;3.13;;;1.92;;
29044;SDS011;16133;49.486;12.176;2023-07-30T07:55:56;2.90;;;1.92;;
29044;SDS011;16133;49.486;12.176;2023-07-30T07:58:22;2.67;;;1.80;;
29044;SDS011;16133;49.486;12.176;2023-07-30T08:00:47;2.78;;;1.83;;
29044;SDS011;16133;49.486;12.176;2023-07-30T08:03:13;2.83;;;1.65;;
29044;SDS011;16133;49.486;12.176;2023-07-30T08:05:39;3.15;;;1.83;;
29044;SDS011;16133;49.486;12.176;2023-07-30T08:08:04;3.13;;;1.52;;
29044;SDS011;16133;49.486;12.176;2023-07-30T08:10:30;2.05;;;1.67;;
29044;SDS011;16133;49.486;12.176;2023-07-30T08:12:55;1.92;;;1.70;;
29044;SDS011;16133;49.486;12.176;2023-07-30T08:15:20;2.38;;;1.63;;
29044;SDS011;16133;49.486;12.176;2023-07-30T08:17:46;3.80;;;1.83;;
29044;SDS011;16133;49.486;12.176;2023-07-30T08:20:12;2.92;;;1.88;;
29044;SDS011;16133;49.486;12.176;2023-07-30T08:22:37;2.22;;;1.58;;
29044;SDS011;16133;49.486;12.176;2023-07-30T08:25:02;2.25;;;1.88;;
29044;SDS011;16133;49.486;12.176;2023-07-30T08:27:28;4.45;;;2.00;;
29044;SDS011;16133;49.486;12.176;2023-07-30T08:29:54;2.67;;;1.85;;
29044;SDS011;16133;49.486;12.176;2023-07-30T08:32:19;1.95;;;1.58;;
29044;SDS011;16133;49.486;12.176;2023-07-30T08:34:45;2.08;;;1.60;;
29044;SDS011;16133;49.486;12.176;2023-07-30T08:37:10;1.90;;;1.63;;
29044;SDS011;16133;49.486;12.176;2023-07-30T08:39:35;2.00;;;1.50;;
29044;SDS011;16133;49.486;12.176;2023-07-30T08:42:01;1.55;;;1.30;;
29044;SDS011;16133;49.486;12.176;2023-07-30T08:44:27;3.20;;;2.00;;
29044;SDS011;16133;49.486;12.176;2023-07-30T08:46:53;1.90;;;1.65;;
29044;SDS011;16133;49.486;12.176;2023-07-30T08:49:19;3.33;;;1.50;;
29044;SDS011;16133;49.486;12.176;2023-07-30T08:51:44;2.97;;;1.50;;
29044;SDS011;16133;49.486;12.176;2023-07-30T08:54:13;2.60;;;1.45;;
29044;SDS011;16133;49.486;12.176;2023-07-30T08:56:41;1.65;;;1.42;;
29044;SDS011;16133;49.486;12.176;2023-07-30T08:59:06;1.55;;;1.45;;
29044;SDS011;16133;49.486;12.176;2023-07-30T09:01:35;3.70;;;1.35;;
29044;SDS011;16133;49.486;12.176;2023-07-30T09:04:05;1.73;;;1.63;;
29044;SDS011;16133;49.486;12.176;2023-07-30T09:06:31;1.33;;;1.23;;
29044;SDS011;16133;49.486;12.176;2023-07-30T09:08:57;3.42;;;1.52;;
29044;SDS011;16133;49.486;12.176;2023-07-30T09:11:26;2.25;;;1.65;;
29044;SDS011;16133;49.486;12.176;2023-07-30T09:13:53;1.10;;;1.00;;
29044;SDS011;16133;49.486;12.176;2023-07-30T09:16:24;1.90;;;1.42;;
29044;SDS011;16133;49.486;12.176;2023-07-30T09:18:50;3.08;;;1.55;;
29044;SDS011;16133;49.486;12.176;2023-07-30T09:21:18;4.53;;;1.70;;
29044;SDS011;16133;49.486;12.176;2023-07-30T09:23:44;2.42;;;1.38;;
29044;SDS011;16133;49.486;12.176;2023-07-30T09:26:10;1.70;;;1.50;;
29044;SDS011;16133;49.486;12.176;2023-07-30T09:28:36;1.73;;;1.38;;
29044;SDS011;16133;49.486;12.176;2023-07-30T09:31:02;1.98;;;1.52;;
29044;SDS011;16133;49.486;12.176;2023-07-30T09:33:31;1.67;;;0.98;;
29044;SDS011;16133;49.486;12.176;2023-07-30T09:35:57;1.80;;;1.25;;
29044;SDS011;16133;49.486;12.176;2023-07-30T09:38:23;2.40;;;1.42;;
29044;SDS011;16133;49.486;12.176;2023-07-30T09:40:58;3.20;;;1.65;;
29044;SDS011;16133;49.486;12.176;2023-07-30T09:43:28;2.25;;;1.63;;
29044;SDS011;16133;49.486;12.176;2023-07-30T09:45:54;5.47;;;1.35;;
29044;SDS011;16133;49.486;12.176;2023-07-30T09:48:31;2.13;;;1.60;;
29044;SDS011;16133;49.486;12.176;2023-07-30T09:51:01;1.67;;;1.38;;
29044;SDS011;16133;49.486;12.176;2023-07-30T09:53:31;2.42;;;1.50;;
29044;SDS011;16133;49.486;12.176;2023-07-30T09:56:00;1.65;;;1.45;;
29044;SDS011;16133;49.486;12.176;2023-07-30T09:58:30;2.53;;;1.83;;
29044;SDS011;16133;49.486;12.176;2023-07-30T10:01:02;2.15;;;1.25;;
29044;SDS011;16133;49.486;12.176;2023-07-30T10:06:03;1.73;;;1.40;;
29044;SDS011;16133;49.486;12.176;2023-07-30T10:08:34;1.42;;;1.20;;
29044;SDS011;16133;49.486;12.176;2023-07-30T10:11:06;2.25;;;1.23;;
29044;SDS011;16133;49.486;12.176;2023-07-30T10:13:33;1.30;;;1.20;;
29044;SDS011;16133;49.486;12.176;2023-07-30T10:16:00;1.30;;;1.20;;
29044;SDS011;16133;49.486;12.176;2023-07-30T10:18:47;1.30;;;1.20;;
29044;SDS011;16133;49.486;12.176;2023-07-30T10:21:21;1.77;;;1.40;;
29044;SDS011;16133;49.486;12.176;2023-07-30T10:24:01;1.65;;;1.20;;
29044;SDS011;16133;49.486;12.176;2023-07-30T10:26:32;3.97;;;1.48;;
29044;SDS011;16133;49.486;12.176;2023-07-30T10:29:14;1.60;;;1.33;;
29044;SDS011;16133;49.486;12.176;2023-07-30T10:31:54;2.45;;;1.63;;
29044;SDS011;16133;49.486;12.176;2023-07-30T10:34:20;1.20;;;1.08;;
29044;SDS011;16133;49.486;12.176;2023-07-30T10:36:50;1.63;;;1.10;;
29044;SDS011;16133;49.486;12.176;2023-07-30T10:39:19;1.67;;;1.33;;
29044;SDS011;16133;49.486;12.176;2023-07-30T10:41:50;1.70;;;1.50;;
29044;SDS011;16133;49.486;12.176;2023-07-30T10:44:21;2.05;;;1.27;;
29044;SDS011;16133;49.486;12.176;2023-07-30T10:46:47;1.15;;;1.05;;
29044;SDS011;16133;49.486;12.176;2023-07-30T10:49:12;1.52;;;1.38;;
29044;SDS011;16133;49.486;12.176;2023-07-30T10:51:37;1.52;;;1.42;;
29044;SDS011;16133;49.486;12.176;2023-07-30T10:54:05;1.17;;;1.08;;
29044;SDS011;16133;49.486;12.176;2023-07-30T10:56:34;2.80;;;1.40;;
29044;SDS011;16133;49.486;12.176;2023-07-30T10:59:02;1.50;;;1.30;;
29044;SDS011;16133;49.486;12.176;2023-07-30T11:01:30;2.25;;;1.38;;
29044;SDS011;16133;49.486;12.176;2023-07-30T11:03:56;1.75;;;1.10;;
29044;SDS011;16133;49.486;12.176;2023-07-30T11:06:25;1.77;;;1.40;;
29044;SDS011;16133;49.486;12.176;2023-07-30T11:08:51;1.65;;;1.20;;
29044;SDS011;16133;49.486;12.176;2023-07-30T11:11:18;2.45;;;1.40;;
29044;SDS011;16133;49.486;12.176;2023-07-30T11:13:44;2.15;;;1.67;;
29044;SDS011;16133;49.486;12.176;2023-07-30T11:16:11;2.65;;;1.17;;
29044;SDS011;16133;49.486;12.176;2023-07-30T11:18:38;1.48;;;1.30;;
29044;SDS011;16133;49.486;12.176;2023-07-30T11:21:09;1.77;;;1.48;;
29044;SDS011;16133;49.486;12.176;2023-07-30T11:23:37;1.88;;;1.70;;
29044;SDS011;16133;49.486;12.176;2023-07-30T11:26:04;1.85;;;1.65;;
29044;SDS011;16133;49.486;12.176;2023-07-30T11:28:32;1.80;;;1.45;;
29044;SDS011;16133;49.486;12.176;2023-07-30T11:31:02;1.80;;;1.40;;
29044;SDS011;16133;49.486;12.176;2023-07-30T11:33:29;1.70;;;1.55;;
29044;SDS011;16133;49.486;12.176;2023-07-30T11:35:55;1.50;;;1.40;;
29044;SDS011;16133;49.486;12.176;2023-07-30T11:38:22;1.77;;;1.50;;
29044;SDS011;16133;49.486;12.176;2023-07-30T11:40:50;3.42;;;1.63;;
29044;SDS011;16133;49.486;12.176;2023-07-30T11:43:16;2.88;;;1.55;;
29044;SDS011;16133;49.486;12.176;2023-07-30T11:45:42;3.20;;;1.73;;
29044;SDS011;16133;49.486;12.176;2023-07-30T11:48:08;3.33;;;1.80;;
29044;SDS011;16133;49.486;12.176;2023-07-30T11:50:48;6.72;;;2.42;;
29044;SDS011;16133;49.486;12.176;2023-07-30T11:53:15;3.15;;;2.05;;
29044;SDS011;16133;49.486;12.176;2023-07-30T11:55:41;2.13;;;1.92;;
29044;SDS011;16133;49.486;12.176;2023-07-30T11:58:08;3.42;;;2.00;;
29044;SDS011;16133;49.486;12.176;2023-07-30T12:00:35;3.58;;;1.73;;
29044;SDS011;16133;49.486;12.176;2023-07-30T12:03:06;3.80;;;2.05;;
29044;SDS011;16133;49.486;12.176;2023-07-30T12:05:34;4.00;;;2.30;;
29044;SDS011;16133;49.486;12.176;2023-07-30T12:08:01;2.58;;;1.55;;
29044;SDS011;16133;49.486;12.176;2023-07-30T12:10:28;3.50;;;1.88;;
29044;SDS011;16133;49.486;12.176;2023-07-30T12:13:10;2.63;;;1.60;;
29044;SDS011;16133;49.486;12.176;2023-07-30T12:15:37;3.63;;;1.65;;
29044;SDS011;16133;49.486;12.176;2023-07-30T12:18:02;3.85;;;2.47;;
29044;SDS011;16133;49.486;12.176;2023-07-30T12:20:28;2.25;;;1.92;;
29044;SDS011;16133;49.486;12.176;2023-07-30T12:22:53;1.90;;;1.80;;
29044;SDS011;16133;49.486;12.176;2023-07-30T12:25:19;4.57;;;1.85;;
29044;SDS011;16133;49.486;12.176;2023-07-30T12:27:44;4.22;;;1.95;;
29044;SDS011;16133;49.486;12.176;2023-07-30T12:30:10;1.58;;;1.45;;
29044;SDS011;16133;49.486;12.176;2023-07-30T12:32:35;2.05;;;1.42;;
29044;SDS011;16133;49.486;12.176;2023-07-30T12:35:01;2.75;;;1.25;;
29044;SDS011;16133;49.486;12.176;2023-07-30T12:37:26;1.52;;;1.17;;
29044;SDS011;16133;49.486;12.176;2023-07-30T12:39:52;1.42;;;1.10;;
29044;SDS011;16133;49.486;12.176;2023-07-30T12:42:17;1.25;;;1.10;;
29044;SDS011;16133;49.486;12.176;2023-07-30T12:44:42;1.35;;;1.10;;
29044;SDS011;16133;49.486;12.176;2023-07-30T12:47:11;1.13;;;1.02;;
29044;SDS011;16133;49.486;12.176;2023-07-30T12:49:36;1.70;;;1.10;;
29044;SDS011;16133;49.486;12.176;2023-07-30T12:52:01;1.58;;;1.25;;
29044;SDS011;16133;49.486;12.176;2023-07-30T12:54:27;1.50;;;1.05;;
29044;SDS011;16133;49.486;12.176;2023-07-30T12:56:52;1.42;;;1.00;;
29044;SDS011;16133;49.486;12.176;2023-07-30T12:59:18;0.82;;;0.80;;
29044;SDS011;16133;49.486;12.176;2023-07-30T13:01:43;1.52;;;0.90;;
29044;SDS011;16133;49.486;12.176;2023-07-30T13:04:08;1.45;;;1.10;;
29044;SDS011;16133;49.486;12.176;2023-07-30T13:06:34;1.45;;;1.30;;
29044;SDS011;16133;49.486;12.176;2023-07-30T13:08:59;1.20;;;0.90;;
29044;SDS011;16133;49.486;12.176;2023-07-30T13:11:24;1.13;;;0.80;;
29044;SDS011;16133;49.486;12.176;2023-07-30T13:13:50;1.77;;;0.90;;
29044;SDS011;16133;49.486;12.176;2023-07-30T13:16:15;1.60;;;1.00;;
29044;SDS011;16133;49.486;12.176;2023-07-30T13:18:41;0.80;;;0.80;;
29044;SDS011;16133;49.486;12.176;2023-07-30T13:21:06;1.35;;;0.95;;
29044;SDS011;16133;49.486;12.176;2023-07-30T13:23:31;2.70;;;1.13;;
29044;SDS011;16133;49.486;12.176;2023-07-30T13:25:57;3.20;;;1.10;;
29044;SDS011;16133;49.486;12.176;2023-07-30T13:28:22;1.27;;;1.10;;
29044;SDS011;16133;49.486;12.176;2023-07-30T13:30:48;1.92;;;1.23;;
29044;SDS011;16133;49.486;12.176;2023-07-30T13:33:15;1.35;;;1.15;;
29044;SDS011;16133;49.486;12.176;2023-07-30T13:35:41;1.02;;;0.93;;
29044;SDS011;16133;49.486;12.176;2023-07-30T13:38:06;1.73;;;1.30;;
29044;SDS011;16133;49.486;12.176;2023-07-30T13:40:32;2.65;;;1.67;;
29044;SDS011;16133;49.486;12.176;2023-07-30T13:42:57;1.35;;;1.25;;
29044;SDS011;16133;49.486;12.176;2023-07-30T13:45:22;1.98;;;1.50;;
29044;SDS011;16133;49.486;12.176;2023-07-30T13:47:48;2.28;;;1.50;;
29044;SDS011;16133;49.486;12.176;2023-07-30T13:50:13;2.80;;;1.60;;
29044;SDS011;16133;49.486;12.176;2023-07-30T13:52:38;1.52;;;1.30;;
29044;SDS011;16133;49.486;12.176;2023-07-30T13:55:04;3.38;;;1.60;;
29044;SDS011;16133;49.486;12.176;2023-07-30T13:57:30;1.70;;;1.52;;
29044;SDS011;16133;49.486;12.176;2023-07-30T13:59:55;1.98;;;1.60;;
29044;SDS011;16133;49.486;12.176;2023-07-30T14:02:20;6.75;;;2.33;;
29044;SDS011;16133;49.486;12.176;2023-07-30T14:04:46;2.28;;;1.55;;
29044;SDS011;16133;49.486;12.176;2023-07-30T14:07:12;2.80;;;1.38;;
29044;SDS011;16133;49.486;12.176;2023-07-30T14:09:37;2.60;;;1.55;;
29044;SDS011;16133;49.486;12.176;2023-07-30T14:12:03;3.17;;;2.08;;
29044;SDS011;16133;49.486;12.176;2023-07-30T14:14:29;2.10;;;1.45;;
29044;SDS011;16133;49.486;12.176;2023-07-30T14:16:54;2.45;;;1.50;;
29044;SDS011;16133;49.486;12.176;2023-07-30T14:19:20;1.58;;;1.35;;
29044;SDS011;16133;49.486;12.176;2023-07-30T14:21:45;1.60;;;1.35;;
29044;SDS011;16133;49.486;12.176;2023-07-30T14:24:11;4.07;;;1.48;;
29044;SDS011;16133;49.486;12.176;2023-07-30T14:26:36;5.53;;;1.80;;
29044;SDS011;16133;49.486;12.176;2023-07-30T14:29:02;2.10;;;1.42;;
29044;SDS011;16133;49.486;12.176;2023-07-30T14:31:27;2.78;;;1.58;;